Time;durP1;ratioP1;P1;durP2;ratioP2;P2;SDS_P1;SDS_P2;PMS_P1;PMS_P2;Temp;Humidity;BMP_temperature;BMP_pressure;BME280_temperature;BME280_humidity;BME280_pressure;Samples;Min_cycle;Max_cycle;Signal;HPM_P1;HPM_P2
2022/09/07 00:02:21;;;;;;;1999.90;999.90;;;18.20;1.00;;;;;;5072616;28;20045;-72
2022/09/07 00:04:47;;;;;;;1999.90;999.90;;;18.20;1.00;;;;;;5072812;28;20040;-71
2022/09/07 00:07:13;;;;;;;1999.90;999.90;;;18.10;1.00;;;;;;5071105;28;20416;-71
2022/09/07 00:09:39;;;;;;;1999.90;996.97;;;18.10;1.00;;;;;;5072496;28;20053;-71
2022/09/07 00:12:04;;;;;;;1999.90;999.90;;;18.00;1.00;;;;;;5070315;28;20048;-72
2022/09/07 00:14:30;;;;;;;1999.90;999.90;;;18.00;1.00;;;;;;5071694;28;20079;-71
2022/09/07 00:16:56;;;;;;;1999.90;999.90;;;18.00;1.00;;;;;;5070831;28;20095;-71
2022/09/07 00:19:21;;;;;;;1999.90;999.90;;;18.00;1.00;;;;;;5088489;28;20051;-71
2022/09/07 00:21:47;;;;;;;1999.90;999.90;;;18.00;1.00;;;;;;5054083;28;20044;-70
2022/09/07 00:24:13;;;;;;;1999.90;999.90;;;18.00;1.00;;;;;;5070540;28;20040;-70
2022/09/07 00:26:39;;;;;;;1999.90;963.50;;;17.90;1.00;;;;;;5070862;28;20053;-71
2022/09/07 00:29:06;;;;;;;1999.90;977.63;;;17.90;1.00;;;;;;5071468;28;20049;-70
2022/09/07 00:31:32;;;;;;;1999.90;999.90;;;17.80;1.00;;;;;;5071246;28;20506;-71
2022/09/07 00:34:00;;;;;;;1999.90;969.15;;;17.80;1.00;;;;;;5071289;28;20195;-70
2022/09/07 00:36:26;;;;;;;1999.90;997.60;;;17.80;1.00;;;;;;5071018;28;20049;-72
2022/09/07 00:38:52;;;;;;;1999.90;978.47;;;17.80;1.00;;;;;;5072306;28;20048;-74
2022/09/07 00:41:20;;;;;;;1999.90;999.90;;;17.90;1.00;;;;;;5072463;28;20071;-71
2022/09/07 00:43:55;;;;;;;1999.90;999.90;;;17.90;1.00;;;;;;5069664;28;20067;-70
2022/09/07 00:46:30;;;;;;;1999.90;999.90;;;17.90;1.00;;;;;;5070711;28;20079;-70
2022/09/07 00:49:17;;;;;;;1999.90;999.90;;;17.80;1.00;;;;;;5070615;28;20044;-70
2022/09/07 00:51:53;;;;;;;1999.90;999.90;;;17.70;1.00;;;;;;5070673;28;20048;-70
2022/09/07 00:54:22;;;;;;;1999.90;999.90;;;17.60;1.00;;;;;;5071145;28;20047;-71
2022/09/07 00:56:51;;;;;;;1999.90;999.90;;;17.60;1.00;;;;;;5070398;28;20051;-72
2022/09/07 00:59:21;;;;;;;1999.90;999.90;;;17.50;12.20;;;;;;5071526;28;20185;-70
2022/09/07 01:01:47;;;;;;;1999.90;999.90;;;17.40;99.90;;;;;;5071673;28;20048;-71
2022/09/07 01:04:14;;;;;;;1999.90;999.90;;;17.30;99.90;;;;;;5070362;28;20052;-71
2022/09/07 01:06:42;;;;;;;1999.90;999.90;;;17.10;99.90;;;;;;5069516;28;20086;-72
2022/09/07 01:09:12;;;;;;;;;;;17.10;99.90;;;;;;5069969;28;20497;-73
2022/09/07 01:11:39;;;;;;;1999.90;999.90;;;17.30;1.00;;;;;;5069978;28;20024;-76
2022/09/07 01:14:08;;;;;;;1999.90;997.67;;;17.30;99.90;;;;;;5071178;28;20052;-80
2022/09/07 01:16:36;;;;;;;1999.90;999.90;;;16.50;21.50;;;;;;5069035;28;20485;-84
2022/09/07 01:19:16;;;;;;;1999.90;999.90;;;16.60;99.90;;;;;;5070757;28;20098;-81
2022/09/07 01:21:48;;;;;;;1999.90;999.90;;;16.60;29.00;;;;;;5069997;28;20043;-77
2022/09/07 01:24:45;;;;;;;1999.90;999.90;;;16.70;91.60;;;;;;5071485;28;20059;-75
2022/09/07 01:27:23;;;;;;;1999.90;999.90;;;18.00;99.90;;;;;;5054655;28;20444;-79
2022/09/07 01:30:04;;;;;;;1999.90;999.90;;;17.80;99.90;;;;;;5071283;28;20045;-71
2022/09/07 01:32:39;;;;;;;1999.90;999.90;;;18.30;20.90;;;;;;5069964;28;20098;-86
2022/09/07 01:35:13;;;;;;;1999.90;999.90;;;18.50;99.90;;;;;;5070535;28;20060;-74
2022/09/07 01:38:09;;;;;;;1999.90;999.90;;;17.00;99.90;;;;;;5070302;28;20045;-81
2022/09/07 01:40:47;;;;;;;1999.90;999.90;;;17.00;99.90;;;;;;5063892;28;20088;-70
2022/09/07 01:43:41;;;;;;;1999.90;999.90;;;17.20;99.90;;;;;;5068696;28;20045;-71
2022/09/07 01:46:26;;;;;;;1999.90;999.90;;;18.60;99.90;;;;;;5070883;28;20126;-70
2022/09/07 01:48:56;;;;;;;1999.90;999.90;;;18.50;99.90;;;;;;5071656;28;20052;-70
2022/09/07 01:51:30;;;;;;;1999.90;999.90;;;17.70;99.90;;;;;;5057155;28;20056;-80
2022/09/07 01:54:02;;;;;;;1999.90;999.90;;;17.10;99.90;;;;;;5074902;28;20097;-70
2022/09/07 01:56:39;;;;;;;1999.90;999.90;;;18.80;99.90;;;;;;5074845;28;20052;-77
2022/09/07 01:59:16;;;;;;;1999.90;999.90;;;18.60;99.90;;;;;;5075053;28;20044;-70
2022/09/07 02:02:02;;;;;;;1999.90;999.90;;;18.80;99.90;;;;;;5074953;28;20086;-70
2022/09/07 02:04:41;;;;;;;1999.90;999.90;;;17.10;99.90;;;;;;5074863;28;20485;-69
2022/09/07 02:07:06;;;;;;;;;;;18.90;99.90;;;;;;5073234;28;20063;-78
2022/09/07 02:09:48;;;;;;;1999.90;999.90;;;17.90;99.90;;;;;;5075073;28;19921;-70
2022/09/07 02:12:21;;;;;;;1999.90;999.90;;;18.20;99.90;;;;;;5073418;28;20064;-70
2022/09/07 02:14:53;;;;;;;1999.90;999.90;;;17.90;99.90;;;;;;5056073;28;20049;-70
2022/09/07 02:17:25;;;;;;;1999.90;999.90;;;18.60;99.90;;;;;;5074243;28;20500;-76
2022/09/07 02:19:54;;;;;;;1999.90;999.90;;;17.20;99.90;;;;;;5073261;28;20116;-73
2022/09/07 02:22:26;;;;;;;1999.90;999.90;;;17.30;99.90;;;;;;5074028;28;20040;-69
2022/09/07 02:24:55;;;;;;;1999.90;999.90;;;18.30;99.90;;;;;;5056402;28;20056;-74
2022/09/07 02:27:27;;;;;;;1999.90;999.90;;;18.30;99.90;;;;;;5074423;28;20045;-76
2022/09/07 02:29:53;;;;;;;1999.90;999.90;;;16.90;99.90;;;;;;5072470;28;20123;-75
2022/09/07 02:32:19;;;;;;;1999.90;999.90;;;16.90;99.90;;;;;;5074515;28;20158;-69
2022/09/07 02:34:45;;;;;;;1999.90;999.90;;;18.40;99.90;;;;;;5056399;28;20668;-70
2022/09/07 02:37:14;;;;;;;1999.90;999.90;;;16.80;99.90;;;;;;5073016;28;20382;-70
2022/09/07 02:39:39;;;;;;;1999.90;999.90;;;18.70;99.90;;;;;;5073580;28;20048;-74
2022/09/07 02:42:05;;;;;;;1999.90;999.90;;;16.80;99.90;;;;;;5040066;28;20465;-70
2022/09/07 02:44:36;;;;;;;1999.90;999.90;;;18.70;99.90;;;;;;5073486;28;20048;-75
2022/09/07 02:47:30;;;;;;;1999.90;999.90;;;18.20;99.90;;;;;;5071888;28;20051;-70
2022/09/07 02:50:03;;;;;;;1999.90;999.90;;;17.80;99.90;;;;;;5071800;28;20145;-70
2022/09/07 02:52:49;;;;;;;1999.90;999.90;;;16.80;99.90;;;;;;5073363;28;20067;-71
2022/09/07 02:55:25;;;;;;;1999.90;999.90;;;17.10;99.90;;;;;;5073173;28;20048;-82
2022/09/07 02:58:09;;;;;;;1999.90;999.90;;;17.80;99.90;;;;;;5072296;28;20530;-71
2022/09/07 03:00:44;;;;;;;1999.90;999.90;;;17.20;99.90;;;;;;5073230;28;20041;-72
2022/09/07 03:03:29;;;;;;;1999.90;999.90;;;16.60;99.90;;;;;;5073202;28;20045;-80
2022/09/07 03:06:00;;;;;;;1999.90;999.90;;;18.30;99.90;;;;;;5072544;28;20059;-82
2022/09/07 03:08:40;;;;;;;1999.90;999.90;;;18.20;99.90;;;;;;5073920;28;20430;-77
2022/09/07 03:11:07;;;;;;;1999.90;999.90;;;17.20;99.90;;;;;;5071628;28;20154;-72
2022/09/07 03:13:33;;;;;;;1999.90;999.90;;;18.00;99.90;;;;;;5073606;28;20044;-73
2022/09/07 03:15:59;;;;;;;1999.90;999.90;;;17.50;99.90;;;;;;5073367;28;20052;-72
2022/09/07 03:18:26;;;;;;;1999.90;999.90;;;16.60;99.90;;;;;;5073081;28;20045;-85
2022/09/07 03:20:52;;;;;;;1999.90;999.90;;;16.80;99.90;;;;;;5072313;28;20079;-77
2022/09/07 03:23:17;;;;;;;1999.90;999.90;;;16.70;99.90;;;;;;5073027;28;20149;-73
2022/09/07 03:25:43;;;;;;;1999.90;999.90;;;16.80;99.90;;;;;;5073618;28;20496;-89
2022/09/07 03:28:09;;;;;;;1999.90;999.90;;;17.80;99.90;;;;;;5071636;28;20111;-73
2022/09/07 03:30:35;;;;;;;1999.90;999.90;;;17.40;99.90;;;;;;5073051;28;20114;-74
2022/09/07 03:33:01;;;;;;;1999.90;999.90;;;17.30;99.90;;;;;;5073320;28;20166;-80
2022/09/07 03:35:27;;;;;;;1999.90;999.90;;;16.80;99.90;;;;;;5073092;28;20453;-74
2022/09/07 03:37:53;;;;;;;1999.90;999.90;;;16.70;99.90;;;;;;5073007;28;20121;-85
2022/09/07 03:40:18;;;;;;;1999.90;999.90;;;18.30;99.90;;;;;;5072482;28;20037;-74
2022/09/07 03:42:49;;;;;;;1999.90;999.90;;;17.70;99.90;;;;;;5072438;28;20055;-75
2022/09/07 03:45:15;;;;;;;1999.90;999.90;;;18.80;99.90;;;;;;5073049;28;20536;-74
2022/09/07 03:47:41;;;;;;;1999.90;999.90;;;16.70;99.90;;;;;;5073125;28;20179;-73
2022/09/07 03:50:07;;;;;;;1999.90;999.90;;;18.20;99.90;;;;;;5072720;28;20070;-74
2022/09/07 03:52:33;;;;;;;1999.90;999.90;;;17.80;99.90;;;;;;5072392;28;20385;-78
2022/09/07 03:54:59;;;;;;;1999.90;999.90;;;18.10;99.90;;;;;;5071942;28;20129;-86
2022/09/07 03:57:25;;;;;;;1999.90;999.90;;;18.80;99.90;;;;;;5072142;28;20481;-75
2022/09/07 03:59:51;;;;;;;1999.90;999.90;;;18.30;99.90;;;;;;5072101;28;20063;-79
2022/09/07 04:02:16;;;;;;;1999.90;999.90;;;17.40;99.90;;;;;;5072821;28;20087;-76
2022/09/07 04:04:44;;;;;;;1999.90;998.95;;;16.60;99.90;;;;;;5072599;28;20040;-85
2022/09/07 04:07:10;;;;;;;1999.90;999.90;;;18.50;99.90;;;;;;5070723;28;20053;-82
2022/09/07 04:09:36;;;;;;;1999.90;999.90;;;16.60;99.90;;;;;;5072480;28;20151;-78
2022/09/07 04:12:02;;;;;;;1999.90;999.90;;;18.80;99.90;;;;;;5071496;28;20114;-80
2022/09/07 04:14:28;;;;;;;1999.90;999.90;;;17.20;99.90;;;;;;5055553;28;20121;-76
2022/09/07 04:16:53;;;;;;;1999.90;999.90;;;17.80;99.90;;;;;;5055420;28;20056;-76
2022/09/07 04:19:19;;;;;;;1999.90;999.90;;;16.40;99.90;;;;;;5072861;28;20044;-76
2022/09/07 04:21:45;;;;;;;1999.90;999.90;;;17.10;99.90;;;;;;5070944;28;20041;-89
2022/09/07 04:24:13;;;;;;;1999.90;999.90;;;18.70;99.90;;;;;;5071634;28;20055;-81
2022/09/07 04:26:39;;;;;;;1999.90;999.90;;;18.00;99.90;;;;;;5072317;28;20052;-82
2022/09/07 04:29:05;;;;;;;1999.90;999.90;;;16.40;99.90;;;;;;5073590;28;20041;-77
2022/09/07 04:31:34;;;;;;;1999.90;999.90;;;16.40;99.90;;;;;;5074153;28;20411;-78
2022/09/07 04:34:01;;;;;;;1999.90;999.90;;;16.70;99.90;;;;;;5073993;28;20036;-77
2022/09/07 04:36:26;;;;;;;1999.90;999.90;;;17.40;99.90;;;;;;5074227;28;20396;-77
2022/09/07 04:39:00;;;;;;;1999.90;999.90;;;17.30;99.90;;;;;;5072849;28;20040;-77
2022/09/07 04:41:27;;;;;;;1999.90;999.90;;;16.30;99.90;;;;;;5070879;28;20474;-80
2022/09/07 04:43:55;;;;;;;1999.90;999.90;;;18.40;99.90;;;;;;5070113;28;20119;-78
2022/09/07 04:46:29;;;;;;;1999.90;999.90;;;18.50;99.90;;;;;;5072260;28;20041;-77
2022/09/07 04:48:58;;;;;;;1999.90;999.90;;;17.70;99.90;;;;;;5074030;28;20547;-78
2022/09/07 04:51:26;;;;;;;1999.90;999.90;;;18.50;99.90;;;;;;5074315;28;20106;-79
2022/09/07 04:58:20;;;;;;;1999.90;999.90;;;16.50;99.90;;;;;;5073988;28;20035;-78
2022/09/07 05:04:35;;;;;;;1999.90;999.90;;;16.50;99.90;;;;;;5093971;28;20042;-79
2022/09/07 05:11:21;;;;;;;1999.90;999.90;;;16.40;99.90;;;;;;5092609;28;20051;-80
2022/09/07 05:13:47;;;;;;;1999.90;999.90;;;17.30;99.90;;;;;;5075939;28;20481;-80
2022/09/07 05:16:18;;;;;;;1999.90;999.90;;;18.30;99.90;;;;;;5092915;28;20062;-80
2022/09/07 05:18:49;;;;;;;1999.90;999.90;;;18.10;99.90;;;;;;5091947;28;20189;-81
2022/09/07 05:21:18;;;;;;;1999.90;999.90;;;18.40;99.90;;;;;;5076402;28;20055;-86
2022/09/07 05:23:44;;;;;;;1999.90;999.90;;;17.80;99.90;;;;;;5112493;28;20096;-83
2022/09/07 05:26:11;;;;;;;1999.90;999.90;;;16.50;99.90;;;;;;5113699;28;20462;-81
2022/09/07 05:28:37;;;;;;;1999.90;999.90;;;18.40;99.90;;;;;;5114134;28;20067;-80
2022/09/07 05:31:08;;;;;;;1999.90;999.90;;;16.30;99.90;;;;;;5078683;28;20044;-81
2022/09/07 05:33:34;;;;;;;1999.90;999.90;;;16.20;99.90;;;;;;5095503;28;20373;-80
2022/09/07 05:36:00;;;;;;;1999.90;999.90;;;18.40;99.90;;;;;;5094731;28;20048;-84
2022/09/07 05:38:27;;;;;;;1999.90;999.90;;;18.50;99.90;;;;;;5112769;28;20100;-90
2022/09/07 05:40:53;;;;;;;1999.90;999.90;;;16.10;99.90;;;;;;5093780;28;20036;-81
2022/09/07 05:43:18;;;;;;;1999.90;999.90;;;18.40;99.90;;;;;;5094140;28;20050;-81
2022/09/07 05:45:44;;;;;;;1999.90;999.90;;;17.70;99.90;;;;;;5111584;28;20044;-88
2022/09/07 05:48:10;;;;;;;1999.90;999.90;;;16.20;99.90;;;;;;5111693;28;20392;-81
2022/09/07 05:50:36;;;;;;;1999.90;999.90;;;18.30;99.90;;;;;;5076645;28;20123;-82
2022/09/07 05:53:02;;;;;;;1999.90;999.90;;;18.50;99.90;;;;;;5092997;28;20051;-83
2022/09/07 05:55:30;;;;;;;1999.90;999.90;;;18.40;99.90;;;;;;5110790;28;20035;-80
2022/09/07 05:57:56;;;;;;;1999.90;999.90;;;17.10;99.90;;;;;;5112506;28;20552;-81
2022/09/07 06:00:22;;;;;;;1999.90;999.90;;;16.50;99.90;;;;;;5093572;28;20043;-81
2022/09/07 06:02:47;;;;;;;1999.90;999.90;;;17.70;99.90;;;;;;5112080;28;20055;-82
2022/09/07 06:05:13;;;;;;;1999.90;999.90;;;16.30;99.90;;;;;;5112450;28;20044;-81
2022/09/07 06:07:39;;;;;;;1999.90;999.90;;;17.60;99.90;;;;;;5094049;28;20044;-81
2022/09/07 06:10:06;;;;;;;1999.90;999.90;;;16.20;99.90;;;;;;5091620;28;20215;-80
2022/09/07 06:12:32;;;;;;;1999.90;999.90;;;18.20;99.90;;;;;;5109315;28;20091;-84
2022/09/07 06:14:59;;;;;;;1999.90;999.90;;;16.60;99.90;;;;;;5109228;28;20124;-81
2022/09/07 06:17:25;;;;;;;1999.90;999.90;;;18.70;99.90;;;;;;5090779;28;20176;-80
2022/09/07 06:19:51;;;;;;;1999.90;999.90;;;18.50;99.90;;;;;;5108942;28;20148;-80
2022/09/07 06:22:17;;;;;;;1999.90;999.90;;;16.60;99.90;;;;;;5109330;28;20047;-80
2022/09/07 06:24:42;;;;;;;1999.90;999.90;;;16.80;99.90;;;;;;5109926;28;20506;-80
2022/09/07 06:27:08;;;;;;;1999.90;999.90;;;18.60;99.90;;;;;;5110523;28;20039;-77
2022/09/07 06:29:34;;;;;;;1999.90;999.90;;;16.70;99.90;;;;;;5111393;28;20503;-79
2022/09/07 06:32:00;;;;;;;1999.90;999.90;;;18.00;99.90;;;;;;5093472;28;20480;-81
2022/09/07 06:34:25;;;;;;;1999.90;999.90;;;16.70;99.90;;;;;;5111332;28;20055;-78
2022/09/07 06:36:51;;;;;;;1999.90;999.90;;;18.30;99.90;;;;;;5080395;28;20047;-78
2022/09/07 06:39:17;;;;;;;1999.90;999.90;;;18.80;99.90;;;;;;5114262;28;20053;-79
2022/09/07 06:41:43;;;;;;;1999.90;999.90;;;19.00;99.90;;;;;;5114490;28;20131;-77
2022/09/07 06:44:10;;;;;;;1999.90;999.90;;;18.60;99.90;;;;;;5113939;28;20383;-77
2022/09/07 06:46:35;;;;;;;1999.90;999.90;;;17.50;99.90;;;;;;5097169;28;20144;-77
2022/09/07 06:49:01;;;;;;;1999.90;999.90;;;18.50;99.90;;;;;;5114177;28;20102;-79
2022/09/07 06:51:28;;;;;;;1999.90;999.90;;;16.80;99.90;;;;;;5114687;28;20047;-79
2022/09/07 06:53:55;;;;;;;1999.90;999.90;;;17.80;99.90;;;;;;5096798;28;20054;-77
2022/09/07 06:56:22;;;;;;;1999.90;999.90;;;17.00;99.90;;;;;;5114580;28;20047;-78
2022/09/07 06:58:53;;;;;;;1999.90;999.90;;;16.60;99.90;;;;;;5114676;28;20083;-80
2022/09/07 07:01:22;;;;;;;1999.90;999.90;;;17.40;99.90;;;;;;5114681;28;20051;-80
2022/09/07 07:03:49;;;;;;;1999.90;999.90;;;16.80;99.90;;;;;;5115134;28;20043;-81
2022/09/07 07:06:15;;;;;;;1999.90;999.90;;;17.70;99.90;;;;;;5096374;28;20051;-77
2022/09/07 07:08:41;;;;;;;1999.90;999.90;;;19.00;99.90;;;;;;5079855;28;20066;-77
2022/09/07 07:11:12;;;;;;;1999.90;999.90;;;18.00;99.90;;;;;;5112994;28;20051;-77
2022/09/07 07:13:39;;;;;;;1999.90;999.90;;;19.10;99.90;;;;;;5114400;28;20438;-77
2022/09/07 07:16:14;;;;;;;1999.90;999.90;;;18.70;99.90;;;;;;5096334;28;20048;-77
2022/09/07 07:18:41;;;;;;;1999.90;999.90;;;19.20;99.90;;;;;;5096617;28;20124;-77
2022/09/07 07:21:12;;;;;;;1999.90;999.90;;;18.60;99.90;;;;;;5079697;28;20055;-78
2022/09/07 07:23:38;;;;;;;1999.90;999.90;;;19.40;99.90;;;;;;5095817;28;20055;-78
2022/09/07 07:26:06;;;;;;;1999.90;999.90;;;17.40;99.90;;;;;;5096169;28;20094;-78
2022/09/07 07:28:32;;;;;;;1999.90;999.90;;;19.50;99.90;;;;;;5113907;28;20112;-78
2022/09/07 07:31:00;;;;;;;1999.90;999.90;;;17.30;99.90;;;;;;5114308;28;20040;-78
2022/09/07 07:33:29;;;;;;;;;;;19.00;99.90;;;;;;5113279;28;20039;-78
2022/09/07 07:36:09;;;;;;;1999.90;999.90;;;19.60;99.90;;;;;;5113166;28;20344;-78
2022/09/07 07:38:35;;;;;;;1999.90;999.90;;;19.90;99.90;;;;;;5095916;28;20044;-78
2022/09/07 07:41:00;;;;;;;1999.90;999.90;;;18.90;99.90;;;;;;5095735;28;20047;-78
2022/09/07 07:43:26;;;;;;;1999.90;999.90;;;19.90;99.90;;;;;;5095143;28;20079;-79
2022/09/07 07:45:54;;;;;;;1999.90;999.90;;;17.90;99.90;;;;;;5095681;28;20104;-79
2022/09/07 07:48:20;;;;;;;1999.90;989.42;;;20.30;99.90;;;;;;5078191;28;20049;-81
2022/09/07 07:51:10;;;;;;;1999.90;968.53;;;20.50;99.90;;;;;;5095499;28;20489;-78
2022/09/07 07:53:37;;;;;;;1999.90;992.00;;;20.20;99.90;;;;;;5095154;28;20086;-79
2022/09/07 07:56:04;;;;;;;1999.90;898.00;;;20.60;99.90;;;;;;5095569;28;20048;-81
2022/09/07 07:58:31;;;;;;;1999.90;952.17;;;20.20;99.90;;;;;;5077887;28;20066;-79
2022/09/07 08:01:07;;;;;;;1999.90;880.33;;;20.30;99.90;;;;;;5079066;28;20039;-78
2022/09/07 08:03:39;;;;;;;1999.90;907.33;;;18.30;99.90;;;;;;5078019;28;20036;-80
2022/09/07 08:06:10;;;;;;;1999.90;938.70;;;21.00;99.90;;;;;;5095466;28;20395;-79
2022/09/07 08:08:36;;;;;;;1999.90;982.88;;;19.60;99.90;;;;;;5111822;28;20112;-79
2022/09/07 08:11:07;;;;;;;1999.90;973.38;;;18.90;99.90;;;;;;5095399;28;20148;-80
2022/09/07 08:13:36;;;;;;;1999.90;910.22;;;18.60;99.90;;;;;;5057537;28;20154;-81
2022/09/07 08:16:02;;;;;;;1999.90;820.47;;;21.00;99.90;;;;;;5091632;28;20044;-78
2022/09/07 08:18:34;;;;;;;1999.90;863.03;;;19.80;99.90;;;;;;5073685;28;20051;-79
2022/09/07 08:21:02;;;;;;;1999.90;829.47;;;20.20;99.90;;;;;;5041583;28;20056;-79
2022/09/07 08:23:30;;;;;;;1999.90;870.88;;;19.30;99.90;;;;;;5074453;28;20058;-79
2022/09/07 08:26:00;;;;;;;1999.90;806.08;;;21.30;99.90;;;;;;5074885;28;20048;-79
2022/09/07 08:28:27;;;;;;;1999.90;819.10;;;20.30;99.90;;;;;;5074066;28;20048;-79
2022/09/07 08:30:53;;;;;;;1999.90;793.72;;;20.60;99.90;;;;;;5092598;28;20374;-78
2022/09/07 08:33:19;;;;;;;1999.90;537.38;;;21.90;99.90;;;;;;5091229;28;20048;-77
2022/09/07 08:35:56;;;;;;;1999.90;609.35;;;19.90;99.90;;;;;;5074828;28;20551;-77
2022/09/07 08:38:22;;;;;;;1999.90;461.48;;;21.50;99.90;;;;;;5092092;28;20044;-77
2022/09/07 08:40:48;;;;;;;1999.90;489.02;;;21.30;99.90;;;;;;5093043;28;20118;-77
2022/09/07 08:43:36;;;;;;;1999.90;501.65;;;19.30;99.90;;;;;;5092654;28;20061;-76
2022/09/07 08:46:27;;;;;;;1999.90;544.00;;;19.60;99.90;;;;;;5093358;28;20079;-76
2022/09/07 08:48:55;;;;;;;1999.90;878.00;;;19.30;99.90;;;;;;5093323;28;20610;-75
2022/09/07 08:51:49;;;;;;;1999.90;489.58;;;19.50;99.90;;;;;;5092779;28;20047;-76
2022/09/07 08:54:15;;;;;;;1999.90;539.53;;;19.60;99.90;;;;;;5089999;28;20063;-76
2022/09/07 08:56:44;;;;;;;1975.88;443.90;;;21.80;99.90;;;;;;5091496;28;20052;-75
2022/09/07 08:59:40;;;;;;;1999.90;999.90;;;22.20;99.90;;;;;;5090808;28;20039;-74
2022/09/07 09:02:13;;;;;;;1999.90;825.53;;;19.70;99.90;;;;;;5091793;28;20393;-75
2022/09/07 09:04:41;;;;;;;1980.47;381.95;;;19.70;99.90;;;;;;5073303;28;20507;-75
2022/09/07 09:07:22;;;;;;;1999.90;570.90;;;21.30;99.90;;;;;;5090598;28;20492;-74
2022/09/07 09:09:57;;;;;;;1953.50;419.63;;;22.40;99.90;;;;;;5098057;28;20058;-75
2022/09/07 09:13:17;;;;;;;1999.90;520.00;;;21.40;99.90;;;;;;5112217;28;20108;-74
2022/09/07 09:15:46;;;;;;;1624.97;284.20;;;23.10;99.90;;;;;;5028865;28;20045;-75
2022/09/07 09:18:29;;;;;;;1999.90;999.90;;;22.90;99.90;;;;;;5029291;28;20057;-78
2022/09/07 09:20:57;;;;;;;1999.90;999.90;;;23.70;99.90;;;;;;5070399;28;20492;-79
2022/09/07 09:23:26;;;;;;;1999.90;999.90;;;23.20;99.90;;;;;;5093399;28;20043;-75
2022/09/07 09:25:53;;;;;;;1999.90;999.90;;;24.00;99.90;;;;;;5111530;28;20051;-77
2022/09/07 09:28:19;;;;;;;1999.90;999.90;;;24.90;99.90;;;;;;5111121;28;20048;-75
2022/09/07 09:30:46;;;;;;;1999.90;999.90;;;25.50;99.90;;;;;;5110953;28;20063;-74
2022/09/07 09:33:14;;;;;;;;;;;25.50;99.90;;;;;;5112497;28;20048;-74
2022/09/07 09:35:40;;;;;;;1999.90;999.90;;;25.50;99.90;;;;;;5111577;28;19923;-75
2022/09/07 09:38:28;;;;;;;1999.90;999.90;;;25.70;99.90;;;;;;5093788;28;20047;-75
2022/09/07 09:40:55;;;;;;;1999.90;999.90;;;24.80;99.90;;;;;;5111610;28;20039;-76
2022/09/07 09:43:25;;;;;;;1999.90;999.50;;;25.20;99.90;;;;;;5111902;28;20079;-75
2022/09/07 09:45:55;;;;;;;1999.90;999.90;;;24.70;99.90;;;;;;5111955;28;20085;-74
2022/09/07 09:48:31;;;;;;;1999.90;999.90;;;25.50;99.90;;;;;;5111994;28;20400;-75
2022/09/07 09:50:58;;;;;;;1999.90;999.90;;;25.50;99.90;;;;;;5111555;28;20126;-75
2022/09/07 09:53:28;;;;;;;1979.80;999.90;;;25.10;99.90;;;;;;5111478;28;20488;-74
2022/09/07 09:56:00;;;;;;;1489.22;968.75;;;24.60;99.90;;;;;;5111453;28;20126;-75
2022/09/07 09:58:34;;;;;;;1099.82;983.88;;;24.10;99.90;;;;;;5111010;28;20051;-75
2022/09/07 10:01:04;;;;;;;1253.97;999.90;;;24.10;99.90;;;;;;5111200;28;20461;-75
2022/09/07 10:03:32;;;;;;;1352.50;999.90;;;24.50;99.90;;;;;;5111135;28;20047;-74
2022/09/07 10:05:59;;;;;;;1151.78;999.90;;;24.90;99.90;;;;;;5111708;28;20483;-73
2022/09/07 10:08:27;;;;;;;1339.05;987.90;;;24.60;99.90;;;;;;5111248;28;20040;-74
2022/09/07 10:11:11;;;;;;;1166.53;999.90;;;24.80;99.90;;;;;;5114133;28;20383;-73
2022/09/07 10:13:51;;;;;;;1459.88;999.53;;;24.60;99.90;;;;;;5115914;28;20112;-74
2022/09/07 10:16:17;;;;;;;1147.20;999.90;;;25.00;99.90;;;;;;5097704;28;20131;-74
2022/09/07 10:18:57;;;;;;;1149.45;999.90;;;25.20;99.90;;;;;;5115237;28;20092;-74
2022/09/07 10:21:28;;;;;;;1360.97;999.90;;;25.20;99.90;;;;;;5097226;28;20536;-80
2022/09/07 10:24:17;;;;;;;1943.38;999.90;;;25.30;99.90;;;;;;5115537;28;20490;-75
2022/09/07 10:26:43;;;;;;;;;;;25.70;99.90;;;;;;5114345;28;20052;-74
2022/09/07 10:29:27;;;;;;;1449.53;999.90;;;26.30;99.90;;;;;;5115873;28;19977;-73
2022/09/07 10:32:12;;;;;;;1174.82;931.72;;;27.10;99.90;;;;;;5115813;28;20087;-79
2022/09/07 10:34:41;;;;;;;1979.13;999.90;;;27.80;99.90;;;;;;5114838;28;20098;-74
2022/09/07 10:37:09;;;;;;;1999.90;999.90;;;28.20;99.90;;;;;;5114991;28;20444;-73
2022/09/07 10:39:41;;;;;;;1318.05;999.90;;;28.60;99.90;;;;;;5115351;28;20477;-73
2022/09/07 10:42:29;;;;;;;1703.22;942.35;;;29.00;92.10;;;;;;5115166;28;20503;-77
2022/09/07 10:45:01;;;;;;;1811.85;999.90;;;29.30;99.90;;;;;;5097748;28;20087;-73
2022/09/07 10:47:47;;;;;;;1676.53;999.90;;;29.50;97.00;;;;;;5115443;28;20127;-82
2022/09/07 10:50:40;;;;;;;1487.80;999.90;;;29.60;1.00;;;;;;5114839;28;20462;-74
2022/09/07 10:53:46;;;;;;;1681.88;999.90;;;30.30;1.00;;;;;;5115738;28;20100;-74
2022/09/07 10:56:33;;;;;;;1660.68;999.90;;;29.60;1.00;;;;;;5063739;28;20063;-75
2022/09/07 10:59:30;;;;;;;1388.57;999.90;;;29.00;1.00;;;;;;5115477;28;20085;-73
2022/09/07 11:02:29;;;;;;;1470.13;999.90;;;28.50;1.00;;;;;;5114515;28;20380;-73
2022/09/07 11:05:36;;;;;;;1075.53;959.88;;;28.20;1.00;;;;;;5115503;28;20044;-74
2022/09/07 11:08:26;;;;;;;1175.43;999.90;;;28.80;1.00;;;;;;5097385;28;20043;-74
2022/09/07 11:11:06;;;;;;;1138.60;999.90;;;29.30;1.00;;;;;;5096320;28;20545;-74
2022/09/07 11:13:36;;;;;;;1692.32;939.47;;;29.90;1.00;;;;;;5114013;28;20059;-75
2022/09/07 11:16:07;;;;;;;1685.47;980.10;;;30.30;1.00;;;;;;5114389;28;20044;-73
2022/09/07 11:18:39;;;;;;;1999.90;862.55;;;31.70;1.00;;;;;;5113786;28;20396;-75
2022/09/07 11:21:12;;;;;;;1490.43;515.38;;;32.30;1.00;;;;;;5113582;28;20122;-73
2022/09/07 11:23:51;;;;;;;1655.63;999.90;;;30.90;1.00;;;;;;5094836;28;20047;-73
2022/09/07 11:26:29;;;;;;;1973.43;884.38;;;29.80;1.00;;;;;;5095850;28;20066;-73
2022/09/07 11:28:56;;;;;;;;;;;29.60;1.00;;;;;;5114808;28;20135;-73
2022/09/07 11:31:51;;;;;;;1999.90;999.90;;;29.70;1.00;;;;;;5114908;28;19942;-73
2022/09/07 11:34:22;;;;;;;1391.47;505.77;;;30.10;1.00;;;;;;5112210;28;20124;-73
2022/09/07 11:36:59;;;;;;;1250.85;378.60;;;30.90;1.00;;;;;;5114238;28;20126;-73
2022/09/07 11:39:38;;;;;;;1368.73;619.20;;;31.60;1.00;;;;;;5114668;28;20047;-74
2022/09/07 11:42:30;;;;;;;1999.90;999.90;;;32.10;1.00;;;;;;5114350;28;20043;-73
2022/09/07 11:45:11;;;;;;;954.03;323.17;;;32.50;99.90;;;;;;5113276;28;20063;-76
2022/09/07 11:47:57;;;;;;;1330.25;456.73;;;31.40;99.90;;;;;;5113499;28;20134;-74
2022/09/07 11:50:24;;;;;;;1495.63;522.38;;;30.70;1.00;;;;;;5113805;28;20039;-74
2022/09/07 11:52:57;;;;;;;1870.55;938.45;;;30.30;1.00;;;;;;5095204;28;20476;-74
2022/09/07 11:55:27;;;;;;;1999.90;999.90;;;30.60;1.00;;;;;;5078187;28;20050;-73
2022/09/07 11:57:58;;;;;;;1274.80;582.30;;;30.80;99.90;;;;;;5095460;28;20048;-75
2022/09/07 12:00:54;;;;;;;1382.35;487.75;;;29.90;99.90;;;;;;5113991;28;20199;-72
2022/09/07 12:04:01;;;;;;;1999.90;990.75;;;28.80;99.90;;;;;;5114761;28;20044;-73
2022/09/07 12:06:46;;;;;;;1648.78;999.90;;;28.40;1.00;;;;;;5031287;28;20049;-72
2022/09/07 12:09:30;;;;;;;1938.25;999.90;;;27.90;1.00;;;;;;5108323;28;20491;-73
2022/09/07 12:12:11;;;;;;;1623.53;997.17;;;27.30;1.00;;;;;;5113809;28;20126;-73
2022/09/07 12:14:59;;;;;;;1785.57;999.90;;;26.90;1.00;;;;;;5114399;28;20051;-73
2022/09/07 12:17:43;;;;;;;1778.05;999.90;;;26.70;1.00;;;;;;5114265;28;20052;-73
2022/09/07 12:20:16;;;;;;;1852.38;999.90;;;26.80;1.00;;;;;;5113320;28;20055;-75
2022/09/07 12:22:55;;;;;;;1939.95;999.90;;;27.00;1.00;;;;;;5095766;28;20430;-73
2022/09/07 12:25:22;;;;;;;1913.18;999.90;;;26.80;1.00;;;;;;5114159;28;20044;-72
2022/09/07 12:27:48;;;;;;;1484.47;999.90;;;26.60;1.00;;;;;;5113281;28;20153;-73
2022/09/07 12:30:13;;;;;;;1599.47;999.90;;;26.30;1.00;;;;;;5095778;28;20111;-76
2022/09/07 12:32:52;;;;;;;1999.90;999.90;;;26.20;23.90;;;;;;5113275;28;20140;-73
2022/09/07 12:35:27;;;;;;;1939.97;999.90;;;26.20;11.50;;;;;;5114172;28;20043;-73
2022/09/07 12:37:54;;;;;;;1977.72;999.90;;;26.10;12.60;;;;;;5113507;28;20054;-73
2022/09/07 12:40:29;;;;;;;1961.10;999.90;;;25.90;1.00;;;;;;5113706;28;20048;-72